createdAt,value
2022-08-03T00:01:30.055Z,1.92
2022-08-03T00:04:33.950Z,1.70
2022-08-03T00:07:35.858Z,2.20
2022-08-03T00:10:38.048Z,2.00
2022-08-03T00:13:39.728Z,2.20
2022-08-03T00:16:41.135Z,1.83
2022-08-03T00:19:42.545Z,2.13
2022-08-03T00:22:43.952Z,2.03
2022-08-03T00:25:45.452Z,1.87
2022-08-03T00:28:46.906Z,1.90
2022-08-03T00:31:52.709Z,2.10
2022-08-03T00:35:01.017Z,2.23
2022-08-03T00:38:09.852Z,1.93
2022-08-03T00:41:11.381Z,1.90
2022-08-03T00:44:17.124Z,1.80
2022-08-03T00:47:18.537Z,2.30
2022-08-03T00:50:22.885Z,2.30
2022-08-03T00:53:24.869Z,2.47
2022-08-03T00:56:26.704Z,2.50
2022-08-03T00:59:28.183Z,2.40
2022-08-03T01:02:29.624Z,2.40
2022-08-03T01:05:37.668Z,2.27
2022-08-03T01:09:02.562Z,2.60
2022-08-03T01:12:14.426Z,2.30
2022-08-03T01:15:28.885Z,2.40
2022-08-03T01:18:45.441Z,2.23
2022-08-03T01:22:00.566Z,2.13
2022-08-03T01:25:09.961Z,2.07
2022-08-03T01:28:59.214Z,2.30
2022-08-03T01:32:53.392Z,2.20
2022-08-03T01:35:42.258Z,1.90
2022-08-03T01:38:49.420Z,1.90
2022-08-03T01:41:59.154Z,1.93
2022-08-03T01:45:02.089Z,2.07
2022-08-03T01:48:05.076Z,1.67
2022-08-03T01:51:08.831Z,2.23
2022-08-03T01:54:13.349Z,2.00
2022-08-03T01:57:16.316Z,1.90
2022-08-03T02:00:19.161Z,1.80
2022-08-03T02:03:23.165Z,1.80
2022-08-03T02:07:02.152Z,1.73
2022-08-03T02:09:50.802Z,2.10
2022-08-03T02:12:53.474Z,1.70
2022-08-03T02:15:56.968Z,2.20
2022-08-03T02:19:00.149Z,1.90
2022-08-03T02:22:02.601Z,2.00
2022-08-03T02:25:04.314Z,2.00
2022-08-03T02:28:13.826Z,2.00
2022-08-03T02:31:23.331Z,2.03
2022-08-03T02:34:29.538Z,2.33
2022-08-03T02:37:34.208Z,2.30
2022-08-03T02:40:36.641Z,2.40
2022-08-03T02:44:05.659Z,2.07
2022-08-03T02:47:09.642Z,2.10
2022-08-03T02:50:13.403Z,2.20
2022-08-03T02:53:17.388Z,2.03
2022-08-03T02:56:19.593Z,2.00
2022-08-03T02:59:21.385Z,1.90
2022-08-03T03:02:24.821Z,1.97
2022-08-03T03:05:56.152Z,2.30
2022-08-03T03:08:48.961Z,2.20
2022-08-03T03:11:51.876Z,2.07
2022-08-03T03:14:53.367Z,1.90
2022-08-03T03:17:56.151Z,2.30
2022-08-03T03:21:00.561Z,1.90
2022-08-03T03:24:02.484Z,2.30
2022-08-03T03:27:04.944Z,1.97
2022-08-03T03:30:07.116Z,1.90
2022-08-03T03:33:08.710Z,1.90
2022-08-03T03:36:10.327Z,2.00
2022-08-03T03:39:15.444Z,2.00
2022-08-03T03:42:17.682Z,2.17
2022-08-03T03:45:20.606Z,2.33
2022-08-03T03:48:22.140Z,2.17
2022-08-03T03:51:23.702Z,2.07
2022-08-03T03:54:25.484Z,2.10
2022-08-03T03:57:30.704Z,1.97
2022-08-03T04:00:32.523Z,2.03
2022-08-03T04:03:35.640Z,2.17
2022-08-03T04:06:55.378Z,2.10
2022-08-03T04:10:16.331Z,1.87
2022-08-03T04:13:19.036Z,2.00
2022-08-03T04:16:23.831Z,2.10
2022-08-03T04:19:34.093Z,2.10
2022-08-03T04:22:36.644Z,2.30
2022-08-03T04:25:40.301Z,2.40
2022-08-03T04:28:45.946Z,2.20
2022-08-03T04:31:48.968Z,2.20
2022-08-03T04:34:51.297Z,2.37
2022-08-03T04:37:55.037Z,2.40
2022-08-03T04:40:57.201Z,2.10
2022-08-03T04:44:00.248Z,2.30
2022-08-03T04:47:02.206Z,2.40
2022-08-03T04:50:09.139Z,2.00
2022-08-03T04:53:13.481Z,2.10
2022-08-03T04:56:14.894Z,2.67
2022-08-03T04:59:17.728Z,2.20
2022-08-03T05:02:19.293Z,2.10
2022-08-03T05:05:21.908Z,2.10
2022-08-03T05:08:28.056Z,2.00
2022-08-03T05:11:29.955Z,2.03
2022-08-03T05:14:31.494Z,2.37
2022-08-03T05:17:34.009Z,2.10
2022-08-03T05:20:35.408Z,2.50
2022-08-03T05:23:37.805Z,2.27
2022-08-03T05:26:39.222Z,2.10
2022-08-03T05:29:40.687Z,2.30
2022-08-03T05:32:42.086Z,2.30
2022-08-03T05:36:01.319Z,2.00
2022-08-03T05:39:04.352Z,1.90
2022-08-03T05:42:05.833Z,2.37
2022-08-03T05:45:19.939Z,2.33
2022-08-03T05:48:21.349Z,2.50
2022-08-03T05:51:23.022Z,2.30
2022-08-03T05:54:24.437Z,2.23
2022-08-03T05:57:46.473Z,2.33
2022-08-03T06:00:47.889Z,2.30
2022-08-03T06:03:50.521Z,2.50
2022-08-03T06:06:51.958Z,2.20
2022-08-03T06:10:35.456Z,2.40
2022-08-03T06:13:14.914Z,2.40
2022-08-03T06:16:16.402Z,2.70
2022-08-03T06:19:17.816Z,2.30
2022-08-03T06:22:19.247Z,2.40
2022-08-03T06:25:22.747Z,2.67
2022-08-03T06:28:52.566Z,2.30
2022-08-03T06:31:45.994Z,2.33
2022-08-03T06:34:47.542Z,2.00
2022-08-03T06:37:50.585Z,2.10
2022-08-03T06:40:52.005Z,2.30
2022-08-03T06:44:03.883Z,2.07
2022-08-03T06:47:05.870Z,2.30
2022-08-03T06:50:14.430Z,2.00
2022-08-03T06:53:20.499Z,1.90
2022-08-03T06:56:22.992Z,2.03
2022-08-03T07:00:06.381Z,1.75
2022-08-03T07:02:46.370Z,1.80
2022-08-03T07:05:49.762Z,1.88
2022-08-03T07:08:53.617Z,2.13
2022-08-03T07:11:57.144Z,1.80
2022-08-03T07:15:02.666Z,1.92
2022-08-03T07:18:04.718Z,2.10
2022-08-03T07:21:07.920Z,2.00
2022-08-03T07:24:09.437Z,1.70
2022-08-03T07:27:11.121Z,2.00
2022-08-03T07:30:13.582Z,2.20
2022-08-03T07:33:15.230Z,2.20
2022-08-03T07:36:16.849Z,2.00
2022-08-03T07:39:18.458Z,2.30
2022-08-03T07:42:20.422Z,2.30
2022-08-03T07:45:23.342Z,2.65
2022-08-03T07:48:24.963Z,2.25
2022-08-03T07:51:26.463Z,2.53
2022-08-03T07:54:27.866Z,2.10
2022-08-03T07:57:29.773Z,1.90
2022-08-03T08:00:31.700Z,2.00
2022-08-03T08:03:52.394Z,2.28
2022-08-03T08:06:54.589Z,1.92
2022-08-03T08:09:56.105Z,2.20
2022-08-03T08:12:57.654Z,1.85
2022-08-03T08:15:59.349Z,2.53
2022-08-03T08:19:01.996Z,2.15
2022-08-03T08:22:03.470Z,2.25
2022-08-03T08:25:06.741Z,2.22
2022-08-03T08:28:30.572Z,2.08
2022-08-03T08:31:29.662Z,2.40
2022-08-03T08:34:31.081Z,2.17
2022-08-03T08:37:34.054Z,2.10
2022-08-03T08:40:35.548Z,2.60
2022-08-03T08:43:37.321Z,2.15
2022-08-03T08:46:39.638Z,2.22
2022-08-03T08:49:53.464Z,2.22
2022-08-03T08:53:03.871Z,2.10
2022-08-03T08:56:16.308Z,2.35
2022-08-03T08:59:18.630Z,2.10
2022-08-03T09:02:20.313Z,2.30
2022-08-03T09:05:35.791Z,2.42
2022-08-03T09:08:42.891Z,2.10
2022-08-03T09:11:57.651Z,2.40
2022-08-03T09:15:21.278Z,2.33
2022-08-03T09:18:32.317Z,2.13
2022-08-03T09:21:34.872Z,2.20
2022-08-03T09:24:41.608Z,2.40
2022-08-03T09:27:45.090Z,2.20
2022-08-03T09:30:59.390Z,1.88
2022-08-03T09:34:03.279Z,2.45
2022-08-03T09:37:14.302Z,2.35
2022-08-03T09:40:34.549Z,2.30
2022-08-03T09:43:46.713Z,2.20
2022-08-03T09:46:53.298Z,1.80
2022-08-03T09:50:02.146Z,2.40
2022-08-03T09:53:03.844Z,2.13
2022-08-03T09:56:35.884Z,2.00
2022-08-03T09:59:29.381Z,1.90
2022-08-03T10:02:31.025Z,2.10
2022-08-03T10:05:33.134Z,2.10
2022-08-03T10:08:34.645Z,2.10
2022-08-03T10:11:41.274Z,2.45
2022-08-03T10:14:45.600Z,2.00
2022-08-03T10:17:47.065Z,2.30
2022-08-03T10:21:03.184Z,2.00
2022-08-03T10:24:07.550Z,2.10
2022-08-03T10:27:11.302Z,2.17
2022-08-03T10:30:13.965Z,2.20
2022-08-03T10:33:50.028Z,2.10
2022-08-03T10:36:43.190Z,2.10
2022-08-03T10:39:53.379Z,2.30
2022-08-03T10:42:59.363Z,2.20
2022-08-03T10:46:06.661Z,2.22
2022-08-03T10:49:12.028Z,2.30
2022-08-03T10:52:32.759Z,2.05
2022-08-03T10:56:11.207Z,2.10
2022-08-03T10:59:12.633Z,2.10
2022-08-03T11:03:06.597Z,2.00
2022-08-03T11:06:19.549Z,2.13
2022-08-03T11:09:21.073Z,2.30
2022-08-03T11:12:30.855Z,2.00
2022-08-03T11:15:34.744Z,2.20
2022-08-03T11:18:36.285Z,2.40
2022-08-03T11:21:49.854Z,2.13
2022-08-03T11:24:54.092Z,2.30
2022-08-03T11:28:30.586Z,2.08
2022-08-03T11:31:49.197Z,2.30
2022-08-03T11:35:07.143Z,2.10
2022-08-03T11:38:10.391Z,2.10
2022-08-03T11:41:42.783Z,2.13
2022-08-03T11:44:46.849Z,1.90
2022-08-03T11:47:51.699Z,2.05
2022-08-03T11:50:53.112Z,1.88
2022-08-03T11:54:05.488Z,2.22
2022-08-03T11:57:07.018Z,2.05
2022-08-03T12:00:26.928Z,1.98
2022-08-03T12:03:33.191Z,2.10
2022-08-03T12:06:54.633Z,2.00
2022-08-03T12:10:15.066Z,1.90
2022-08-03T12:14:44.570Z,2.05
2022-08-03T12:16:39.283Z,1.80
2022-08-03T12:19:44.045Z,1.95
2022-08-03T12:22:45.504Z,2.30
2022-08-03T12:25:47.885Z,2.10
2022-08-03T12:28:51.016Z,1.85
2022-08-03T12:31:53.110Z,2.25
2022-08-03T12:35:00.112Z,2.05
2022-08-03T12:38:03.009Z,2.45
2022-08-03T12:41:13.494Z,1.90
2022-08-03T12:44:15.566Z,2.10
2022-08-03T12:47:17.205Z,2.30
2022-08-03T12:50:36.541Z,2.20
2022-08-03T12:53:37.985Z,2.08
2022-08-03T12:57:00.530Z,2.00
2022-08-03T13:00:21.478Z,2.08
2022-08-03T13:03:42.759Z,2.35
2022-08-03T13:06:44.736Z,1.95
2022-08-03T13:09:50.711Z,2.05
2022-08-03T13:12:53.138Z,2.13
2022-08-03T13:15:54.552Z,2.00
2022-08-03T13:18:56.212Z,2.00
2022-08-03T13:22:04.339Z,2.30
2022-08-03T13:25:06.580Z,1.90
2022-08-03T13:28:12.399Z,1.90
2022-08-03T13:31:15.460Z,1.80
2022-08-03T13:34:20.899Z,2.20
2022-08-03T13:37:24.780Z,2.00
2022-08-03T13:40:30.157Z,2.10
2022-08-03T13:43:31.937Z,2.10
2022-08-03T13:46:34.384Z,2.05
2022-08-03T13:49:35.798Z,2.13
2022-08-03T13:52:37.233Z,2.20
2022-08-03T13:55:38.697Z,1.90
2022-08-03T13:58:40.301Z,2.40
2022-08-03T14:01:55.031Z,1.90
2022-08-03T14:04:57.281Z,2.05
2022-08-03T14:07:58.753Z,2.03
2022-08-03T14:11:06.935Z,2.17
2022-08-03T14:14:08.646Z,2.00
2022-08-03T14:17:10.156Z,1.95
2022-08-03T14:20:36.267Z,2.25
2022-08-03T14:23:39.771Z,2.22
2022-08-03T14:26:41.174Z,2.38
2022-08-03T14:29:42.581Z,1.92
2022-08-03T14:32:44.088Z,2.00
2022-08-03T14:35:45.567Z,2.00
2022-08-03T14:38:47.057Z,2.22
2022-08-03T14:41:48.588Z,2.03
2022-08-03T14:44:50.093Z,2.25
2022-08-03T14:50:29.667Z,1.90
2022-08-03T14:51:12.928Z,2.20
2022-08-03T14:54:14.334Z,2.10
2022-08-03T14:57:19.922Z,1.73
2022-08-03T15:00:21.534Z,2.10
2022-08-03T15:03:24.794Z,2.20
2022-08-03T15:06:26.329Z,1.92
2022-08-03T15:09:27.922Z,1.90
2022-08-03T15:12:29.414Z,2.50
2022-08-03T15:15:30.859Z,2.20
2022-08-03T15:18:32.260Z,2.28
2022-08-03T15:21:46.747Z,2.00
2022-08-03T15:24:49.285Z,1.90
2022-08-03T15:28:03.380Z,1.90
2022-08-03T15:31:06.733Z,2.05
2022-08-03T15:34:08.162Z,2.05
2022-08-03T15:37:16.260Z,2.10
2022-08-03T15:40:18.058Z,1.85
2022-08-03T15:43:20.102Z,1.90
2022-08-03T15:46:29.891Z,2.10
2022-08-03T15:49:31.533Z,2.13
2022-08-03T15:52:33.053Z,2.00
2022-08-03T15:55:34.697Z,2.08
2022-08-03T15:59:11.880Z,2.10
2022-08-03T16:01:58.257Z,2.00
2022-08-03T16:04:59.705Z,1.90
2022-08-03T16:08:03.512Z,2.05
2022-08-03T16:11:06.073Z,2.00
2022-08-03T16:14:30.693Z,2.08
2022-08-03T16:17:28.917Z,1.90
2022-08-03T16:20:33.906Z,2.40
2022-08-03T16:23:37.782Z,2.25
2022-08-03T16:26:39.392Z,2.08
2022-08-03T16:29:40.862Z,2.00
2022-08-03T16:32:45.935Z,1.92
2022-08-03T16:35:49.541Z,1.90
2022-08-03T16:38:51.209Z,2.13
2022-08-03T16:41:53.899Z,2.03
2022-08-03T16:45:02.778Z,2.05
2022-08-03T16:48:05.723Z,2.00
2022-08-03T16:51:07.451Z,1.95
2022-08-03T16:54:14.156Z,1.80
2022-08-03T16:57:16.008Z,2.05
2022-08-03T17:00:32.880Z,2.03
2022-08-03T17:03:57.062Z,1.70
2022-08-03T17:07:00.545Z,1.98
2022-08-03T17:10:02.151Z,2.17
2022-08-03T17:13:03.601Z,1.98
2022-08-03T17:16:09.548Z,2.10
2022-08-03T17:19:12.393Z,1.90
2022-08-03T17:22:18.905Z,1.80
2022-08-03T17:25:39.850Z,1.95
2022-08-03T17:28:57.919Z,1.80
2022-08-03T17:32:04.526Z,1.98
2022-08-03T17:35:11.041Z,2.10
2022-08-03T17:38:15.719Z,1.90
2022-08-03T17:41:21.782Z,1.83
2022-08-03T17:44:33.116Z,2.10
2022-08-03T17:47:43.754Z,1.90
2022-08-03T17:51:00.326Z,1.90
2022-08-03T17:54:18.498Z,1.75
2022-08-03T17:57:28.875Z,1.80
2022-08-03T18:01:56.931Z,2.00
2022-08-03T18:04:41.665Z,2.00
2022-08-03T18:07:49.474Z,1.77
2022-08-03T18:11:14.895Z,1.80
2022-08-03T18:14:25.961Z,1.95
2022-08-03T18:17:55.583Z,2.10
2022-08-03T18:20:54.532Z,2.08
2022-08-03T18:23:59.475Z,2.13
2022-08-03T18:27:02.388Z,1.88
2022-08-03T18:30:04.568Z,2.00
2022-08-03T18:34:19.532Z,2.13
2022-08-03T18:36:32.867Z,2.10
2022-08-03T18:39:39.026Z,2.38
2022-08-03T18:42:54.779Z,2.40
2022-08-03T18:46:01.941Z,2.47
2022-08-03T18:49:11.540Z,2.00
2022-08-03T18:52:17.968Z,1.90
2022-08-03T18:55:33.353Z,2.15
2022-08-03T18:58:51.516Z,2.20
2022-08-03T19:01:59.804Z,2.28
2022-08-03T19:05:10.568Z,1.90
2022-08-03T19:08:21.079Z,1.90
2022-08-03T19:12:12.617Z,2.13
2022-08-03T19:15:12.389Z,2.50
2022-08-03T19:18:17.552Z,2.15
2022-08-03T19:21:19.737Z,2.20
2022-08-03T19:24:26.181Z,2.35
2022-08-03T19:27:30.388Z,2.20
2022-08-03T19:30:53.277Z,2.30
2022-08-03T19:33:58.271Z,2.45
2022-08-03T19:37:00.425Z,2.13
2022-08-03T19:40:01.854Z,1.98
2022-08-03T19:43:16.890Z,2.10
2022-08-03T19:46:20.358Z,2.30
2022-08-03T19:50:01.297Z,2.15
2022-08-03T19:52:49.936Z,2.58
2022-08-03T19:55:54.910Z,2.20
2022-08-03T19:58:58.632Z,2.83
2022-08-03T20:02:00.453Z,2.88
2022-08-03T20:05:02.037Z,2.70
2022-08-03T20:08:06.426Z,2.55
2022-08-03T20:11:11.761Z,2.70
2022-08-03T20:14:20.575Z,2.85
2022-08-03T20:17:56.642Z,3.00
2022-08-03T20:20:51.643Z,3.38
2022-08-03T20:24:02.829Z,3.83
2022-08-03T20:27:21.798Z,3.50
2022-08-03T20:30:31.797Z,3.63
2022-08-03T20:33:46.345Z,3.58
2022-08-03T20:36:50.653Z,3.40
2022-08-03T20:39:54.184Z,3.58
2022-08-03T20:42:55.717Z,3.60
2022-08-03T20:45:58.298Z,3.78
2022-08-03T20:49:04.404Z,3.00
2022-08-03T20:52:06.259Z,3.45
2022-08-03T20:55:20.284Z,3.80
2022-08-03T20:58:23.711Z,3.17
2022-08-03T21:01:27.637Z,3.42
2022-08-03T21:04:40.105Z,3.08
2022-08-03T21:08:04.852Z,2.90
2022-08-03T21:11:11.667Z,2.63
2022-08-03T21:14:18.848Z,2.55
2022-08-03T21:17:39.250Z,2.40
2022-08-03T21:20:43.584Z,2.25
2022-08-03T21:23:49.965Z,2.20
2022-08-03T21:26:54.534Z,2.40
2022-08-03T21:29:58.315Z,2.30
2022-08-03T21:32:59.904Z,2.40
2022-08-03T21:36:02.182Z,2.65
2022-08-03T21:39:08.360Z,2.50
2022-08-03T21:42:09.988Z,2.53
2022-08-03T21:45:17.105Z,2.65
2022-08-03T21:48:19.572Z,2.60
2022-08-03T21:51:24.992Z,2.65
2022-08-03T21:54:35.180Z,2.35
2022-08-03T21:57:39.156Z,2.35
2022-08-03T22:00:43.205Z,2.28
2022-08-03T22:03:51.123Z,2.30
2022-08-03T22:06:55.071Z,3.03
2022-08-03T22:09:57.981Z,2.20
2022-08-03T22:12:59.479Z,2.50
2022-08-03T22:16:01.232Z,2.28
2022-08-03T22:19:02.845Z,2.38
2022-08-03T22:22:07.468Z,2.22
2022-08-03T22:25:14.569Z,2.67
2022-08-03T22:28:16.071Z,2.70
2022-08-03T22:31:56.911Z,2.50
2022-08-03T22:34:42.384Z,2.50
2022-08-03T22:37:48.359Z,2.20
2022-08-03T22:40:50.894Z,2.30
2022-08-03T22:43:53.075Z,2.53
2022-08-03T22:46:55.465Z,2.05
2022-08-03T22:50:33.556Z,2.20
2022-08-03T22:53:21.775Z,2.20
2022-08-03T22:56:23.357Z,2.30
2022-08-03T22:59:40.159Z,2.28
2022-08-03T23:02:45.470Z,2.08
2022-08-03T23:06:00.692Z,2.28
2022-08-03T23:09:13.380Z,2.30
2022-08-03T23:12:18.829Z,2.20
2022-08-03T23:15:21.009Z,2.05
2022-08-03T23:18:23.422Z,1.88
2022-08-03T23:21:53.186Z,2.10
2022-08-03T23:24:49.268Z,1.95
2022-08-03T23:28:04.521Z,2.10
2022-08-03T23:31:08.370Z,2.22
2022-08-03T23:34:31.736Z,2.33
2022-08-03T23:37:33.374Z,2.00
2022-08-03T23:41:01.884Z,2.10
2022-08-03T23:44:03.859Z,2.00
2022-08-03T23:47:05.301Z,2.17
2022-08-03T23:50:07.104Z,1.95
2022-08-03T23:53:28.314Z,2.17
2022-08-03T23:57:00.840Z,2.00
